Nova Prata, Brazil
Current Conditions -  °F | °C
As of 7:00 PM on Thursday 27 Nov 2014 (Local Time) from SBPF Reporting Station
Scattered Clouds Scattered Clouds  
Wind Chill: 79°   Ceiling: Unl
Heat Index: 80°   Visibility: 6mi
Dew Point: 63°   Wind: 17mph
Humidity: 57%   Direction: 160°SSE
Pressure: 29.91"   Gusts: NA
Location:  28.78°S, 51.61°W
Report Text: SBPF 272100Z 16015KT 9999 SCT045 26/17 Q1013
Loading
Personal Weather Stations






























Interactive Weather Map New forecast layout! Learn more

10-Day Weather Forecast

Advertisements
Track Severe Weather on mobile